sensor_id;sensor_type;location;lat;lon;timestamp;temperature;humidity
19805;DHT22;10062;51.052;13.756;2022-11-15T00:00:27;7.60;99.90
19805;DHT22;10062;51.052;13.756;2022-11-15T00:03:20;7.70;99.90
19805;DHT22;10062;51.052;13.756;2022-11-15T00:06:11;7.60;99.90
19805;DHT22;10062;51.052;13.756;2022-11-15T00:09:03;7.60;99.90
19805;DHT22;10062;51.052;13.756;2022-11-15T00:11:53;7.60;99.90
19805;DHT22;10062;51.052;13.756;2022-11-15T00:14:44;7.60;99.90
19805;DHT22;10062;51.052;13.756;2022-11-15T00:17:34;7.60;99.90
19805;DHT22;10062;51.052;13.756;2022-11-15T00:20:26;7.60;99.90
19805;DHT22;10062;51.052;13.756;2022-11-15T00:23:16;7.60;99.90
19805;DHT22;10062;51.052;13.756;2022-11-15T00:26:08;7.60;99.90
19805;DHT22;10062;51.052;13.756;2022-11-15T00:29:00;7.60;99.90
19805;DHT22;10062;51.052;13.756;2022-11-15T00:31:51;7.60;99.90
19805;DHT22;10062;51.052;13.756;2022-11-15T00:34:42;7.60;99.90
19805;DHT22;10062;51.052;13.756;2022-11-15T00:37:33;7.50;99.90
19805;DHT22;10062;51.052;13.756;2022-11-15T00:40:24;7.40;99.90
19805;DHT22;10062;51.052;13.756;2022-11-15T00:43:14;7.40;99.90
19805;DHT22;10062;51.052;13.756;2022-11-15T00:46:05;7.40;99.90
19805;DHT22;10062;51.052;13.756;2022-11-15T00:48:57;7.40;99.90
19805;DHT22;10062;51.052;13.756;2022-11-15T00:51:48;7.40;99.90
19805;DHT22;10062;51.052;13.756;2022-11-15T00:54:40;7.40;99.90
19805;DHT22;10062;51.052;13.756;2022-11-15T00:57:31;7.40;99.90
19805;DHT22;10062;51.052;13.756;2022-11-15T01:00:21;7.40;99.90
19805;DHT22;10062;51.052;13.756;2022-11-15T01:03:12;7.30;99.90
19805;DHT22;10062;51.052;13.756;2022-11-15T01:06:02;7.40;99.90
19805;DHT22;10062;51.052;13.756;2022-11-15T01:08:52;7.40;99.90
19805;DHT22;10062;51.052;13.756;2022-11-15T01:11:44;7.40;99.90
19805;DHT22;10062;51.052;13.756;2022-11-15T01:14:34;7.30;99.90
19805;DHT22;10062;51.052;13.756;2022-11-15T01:17:25;7.30;99.90
19805;DHT22;10062;51.052;13.756;2022-11-15T01:20:15;7.40;99.90
19805;DHT22;10062;51.052;13.756;2022-11-15T01:23:06;7.40;99.90
19805;DHT22;10062;51.052;13.756;2022-11-15T01:25:59;7.30;99.90
19805;DHT22;10062;51.052;13.756;2022-11-15T01:28:50;7.40;99.90
19805;DHT22;10062;51.052;13.756;2022-11-15T01:31:41;7.40;99.90
19805;DHT22;10062;51.052;13.756;2022-11-15T01:34:31;7.40;99.90
19805;DHT22;10062;51.052;13.756;2022-11-15T01:37:22;7.40;99.90
19805;DHT22;10062;51.052;13.756;2022-11-15T01:40:13;7.50;99.90
19805;DHT22;10062;51.052;13.756;2022-11-15T01:43:18;7.50;99.90
19805;DHT22;10062;51.052;13.756;2022-11-15T01:46:22;7.60;99.90
19805;DHT22;10062;51.052;13.756;2022-11-15T01:49:17;7.40;99.90
19805;DHT22;10062;51.052;13.756;2022-11-15T01:52:12;7.50;99.90
19805;DHT22;10062;51.052;13.756;2022-11-15T01:55:06;7.50;99.90
19805;DHT22;10062;51.052;13.756;2022-11-15T01:58:00;7.50;99.90
19805;DHT22;10062;51.052;13.756;2022-11-15T02:00:52;7.60;99.90
19805;DHT22;10062;51.052;13.756;2022-11-15T02:03:48;7.70;99.90
19805;DHT22;10062;51.052;13.756;2022-11-15T02:06:41;7.70;99.90
19805;DHT22;10062;51.052;13.756;2022-11-15T02:09:32;7.70;99.90
19805;DHT22;10062;51.052;13.756;2022-11-15T02:12:23;7.90;99.90
19805;DHT22;10062;51.052;13.756;2022-11-15T02:15:13;7.80;99.90
19805;DHT22;10062;51.052;13.756;2022-11-15T02:18:10;7.80;99.90
19805;DHT22;10062;51.052;13.756;2022-11-15T02:21:16;7.70;99.90
19805;DHT22;10062;51.052;13.756;2022-11-15T02:24:44;7.70;99.90
19805;DHT22;10062;51.052;13.756;2022-11-15T02:27:58;7.70;99.90
19805;DHT22;10062;51.052;13.756;2022-11-15T02:30:58;7.70;99.90
19805;DHT22;10062;51.052;13.756;2022-11-15T02:33:55;7.60;99.90
19805;DHT22;10062;51.052;13.756;2022-11-15T02:36:56;7.70;99.90
19805;DHT22;10062;51.052;13.756;2022-11-15T02:39:51;7.60;99.90
19805;DHT22;10062;51.052;13.756;2022-11-15T02:42:46;7.70;99.90
19805;DHT22;10062;51.052;13.756;2022-11-15T02:46:02;7.70;99.90
19805;DHT22;10062;51.052;13.756;2022-11-15T02:48:55;7.80;99.90
19805;DHT22;10062;51.052;13.756;2022-11-15T02:51:47;7.80;99.90
19805;DHT22;10062;51.052;13.756;2022-11-15T02:54:39;7.80;94.20
19805;DHT22;10062;51.052;13.756;2022-11-15T02:57:39;7.70;96.00
19805;DHT22;10062;51.052;13.756;2022-11-15T03:00:35;7.60;99.90
19805;DHT22;10062;51.052;13.756;2022-11-15T03:03:44;7.50;99.90
19805;DHT22;10062;51.052;13.756;2022-11-15T03:06:41;7.50;99.90
19805;DHT22;10062;51.052;13.756;2022-11-15T03:09:34;7.60;99.90
19805;DHT22;10062;51.052;13.756;2022-11-15T03:12:33;7.40;99.90
19805;DHT22;10062;51.052;13.756;2022-11-15T03:15:29;7.40;99.90
19805;DHT22;10062;51.052;13.756;2022-11-15T03:18:23;7.40;99.90
19805;DHT22;10062;51.052;13.756;2022-11-15T03:21:20;7.30;99.90
19805;DHT22;10062;51.052;13.756;2022-11-15T03:24:12;7.40;99.90
19805;DHT22;10062;51.052;13.756;2022-11-15T03:27:06;7.30;99.90
19805;DHT22;10062;51.052;13.756;2022-11-15T03:30:00;7.30;99.90
19805;DHT22;10062;51.052;13.756;2022-11-15T03:32:53;7.20;99.90
19805;DHT22;10062;51.052;13.756;2022-11-15T03:35:46;7.20;99.90
19805;DHT22;10062;51.052;13.756;2022-11-15T03:38:39;7.20;99.90
19805;DHT22;10062;51.052;13.756;2022-11-15T03:41:35;7.10;99.90
19805;DHT22;10062;51.052;13.756;2022-11-15T03:44:35;7.20;99.90
19805;DHT22;10062;51.052;13.756;2022-11-15T03:47:31;7.20;99.90
19805;DHT22;10062;51.052;13.756;2022-11-15T03:50:23;7.20;99.90
19805;DHT22;10062;51.052;13.756;2022-11-15T03:53:15;7.30;99.90
19805;DHT22;10062;51.052;13.756;2022-11-15T03:56:06;7.20;99.90
19805;DHT22;10062;51.052;13.756;2022-11-15T03:58:57;7.20;99.90
19805;DHT22;10062;51.052;13.756;2022-11-15T04:01:47;7.20;99.90
19805;DHT22;10062;51.052;13.756;2022-11-15T04:04:37;7.10;99.90
19805;DHT22;10062;51.052;13.756;2022-11-15T04:07:28;7.10;99.90
19805;DHT22;10062;51.052;13.756;2022-11-15T04:10:18;7.10;99.90
19805;DHT22;10062;51.052;13.756;2022-11-15T04:13:10;7.20;99.90
19805;DHT22;10062;51.052;13.756;2022-11-15T04:16:00;7.20;99.90
19805;DHT22;10062;51.052;13.756;2022-11-15T04:18:51;7.20;99.90
19805;DHT22;10062;51.052;13.756;2022-11-15T04:21:55;7.20;99.90
19805;DHT22;10062;51.052;13.756;2022-11-15T04:25:04;7.20;99.90
19805;DHT22;10062;51.052;13.756;2022-11-15T04:27:54;7.20;99.90
19805;DHT22;10062;51.052;13.756;2022-11-15T04:30:46;7.10;99.90
19805;DHT22;10062;51.052;13.756;2022-11-15T04:33:37;7.10;99.90
19805;DHT22;10062;51.052;13.756;2022-11-15T04:36:27;7.10;99.90
19805;DHT22;10062;51.052;13.756;2022-11-15T04:39:35;7.10;99.90
19805;DHT22;10062;51.052;13.756;2022-11-15T04:42:26;7.10;99.90
19805;DHT22;10062;51.052;13.756;2022-11-15T04:45:16;7.10;99.90
19805;DHT22;10062;51.052;13.756;2022-11-15T04:48:08;7.10;99.90
19805;DHT22;10062;51.052;13.756;2022-11-15T04:50:58;7.20;99.90
19805;DHT22;10062;51.052;13.756;2022-11-15T04:53:48;7.20;99.90
19805;DHT22;10062;51.052;13.756;2022-11-15T04:56:39;7.20;99.90
19805;DHT22;10062;51.052;13.756;2022-11-15T04:59:29;7.10;99.90
19805;DHT22;10062;51.052;13.756;2022-11-15T05:02:20;7.20;99.90
19805;DHT22;10062;51.052;13.756;2022-11-15T05:05:12;6.40;99.90
19805;DHT22;10062;51.052;13.756;2022-11-15T05:08:01;7.10;99.90
19805;DHT22;10062;51.052;13.756;2022-11-15T05:10:52;7.10;99.90
19805;DHT22;10062;51.052;13.756;2022-11-15T05:13:43;7.10;99.90
19805;DHT22;10062;51.052;13.756;2022-11-15T05:16:33;7.00;99.90
19805;DHT22;10062;51.052;13.756;2022-11-15T05:19:24;7.00;99.90
19805;DHT22;10062;51.052;13.756;2022-11-15T05:22:15;7.00;99.90
19805;DHT22;10062;51.052;13.756;2022-11-15T05:25:06;7.00;99.90
19805;DHT22;10062;51.052;13.756;2022-11-15T05:27:57;7.00;99.90
19805;DHT22;10062;51.052;13.756;2022-11-15T05:30:47;7.00;99.90
19805;DHT22;10062;51.052;13.756;2022-11-15T05:33:39;7.00;99.90
19805;DHT22;10062;51.052;13.756;2022-11-15T05:36:31;6.90;99.90
19805;DHT22;10062;51.052;13.756;2022-11-15T05:39:26;7.00;99.90
19805;DHT22;10062;51.052;13.756;2022-11-15T05:42:17;7.00;99.90
19805;DHT22;10062;51.052;13.756;2022-11-15T05:45:08;7.00;99.90
19805;DHT22;10062;51.052;13.756;2022-11-15T05:48:01;7.10;99.90
19805;DHT22;10062;51.052;13.756;2022-11-15T05:50:55;7.00;99.90
19805;DHT22;10062;51.052;13.756;2022-11-15T05:53:46;7.00;99.90
19805;DHT22;10062;51.052;13.756;2022-11-15T05:56:39;9.60;99.90
19805;DHT22;10062;51.052;13.756;2022-11-15T05:59:30;8.80;99.90
19805;DHT22;10062;51.052;13.756;2022-11-15T06:02:21;7.00;99.90
19805;DHT22;10062;51.052;13.756;2022-11-15T06:05:12;6.90;99.90
19805;DHT22;10062;51.052;13.756;2022-11-15T06:08:02;7.00;99.90
19805;DHT22;10062;51.052;13.756;2022-11-15T06:10:53;7.00;99.90
19805;DHT22;10062;51.052;13.756;2022-11-15T06:13:44;7.00;99.90
19805;DHT22;10062;51.052;13.756;2022-11-15T06:16:35;7.00;99.90
19805;DHT22;10062;51.052;13.756;2022-11-15T06:19:25;7.00;99.90
19805;DHT22;10062;51.052;13.756;2022-11-15T06:22:16;7.00;99.90
19805;DHT22;10062;51.052;13.756;2022-11-15T06:25:06;7.00;99.90
19805;DHT22;10062;51.052;13.756;2022-11-15T06:27:58;7.00;99.90
19805;DHT22;10062;51.052;13.756;2022-11-15T06:30:50;7.00;99.90
19805;DHT22;10062;51.052;13.756;2022-11-15T06:33:40;7.00;99.90
19805;DHT22;10062;51.052;13.756;2022-11-15T06:36:30;7.00;99.90
19805;DHT22;10062;51.052;13.756;2022-11-15T06:39:21;7.00;99.90
19805;DHT22;10062;51.052;13.756;2022-11-15T06:42:11;7.00;99.90
19805;DHT22;10062;51.052;13.756;2022-11-15T06:45:02;7.10;99.90
19805;DHT22;10062;51.052;13.756;2022-11-15T06:47:54;7.00;99.90
19805;DHT22;10062;51.052;13.756;2022-11-15T06:50:50;7.10;99.90
19805;DHT22;10062;51.052;13.756;2022-11-15T06:53:41;7.10;99.90
19805;DHT22;10062;51.052;13.756;2022-11-15T06:56:31;7.20;99.90
19805;DHT22;10062;51.052;13.756;2022-11-15T06:59:23;7.20;99.90
19805;DHT22;10062;51.052;13.756;2022-11-15T07:02:13;7.20;99.90
19805;DHT22;10062;51.052;13.756;2022-11-15T07:05:06;7.20;99.90
19805;DHT22;10062;51.052;13.756;2022-11-15T07:07:57;7.30;99.90
19805;DHT22;10062;51.052;13.756;2022-11-15T07:10:48;7.30;99.90
19805;DHT22;10062;51.052;13.756;2022-11-15T07:13:38;7.40;99.90
19805;DHT22;10062;51.052;13.756;2022-11-15T07:16:29;9.70;99.90
19805;DHT22;10062;51.052;13.756;2022-11-15T07:19:20;7.50;99.90
19805;DHT22;10062;51.052;13.756;2022-11-15T07:22:11;7.50;99.90
19805;DHT22;10062;51.052;13.756;2022-11-15T07:25:02;7.60;99.90
19805;DHT22;10062;51.052;13.756;2022-11-15T07:27:56;7.70;99.90
19805;DHT22;10062;51.052;13.756;2022-11-15T07:30:47;7.70;95.10
19805;DHT22;10062;51.052;13.756;2022-11-15T07:33:37;7.70;93.80
19805;DHT22;10062;51.052;13.756;2022-11-15T07:36:28;7.80;85.80
19805;DHT22;10062;51.052;13.756;2022-11-15T07:39:20;7.90;80.70
19805;DHT22;10062;51.052;13.756;2022-11-15T07:42:10;7.90;73.70
19805;DHT22;10062;51.052;13.756;2022-11-15T07:45:19;7.90;72.60
19805;DHT22;10062;51.052;13.756;2022-11-15T07:48:10;7.90;72.20
19805;DHT22;10062;51.052;13.756;2022-11-15T07:51:00;7.90;68.00
19805;DHT22;10062;51.052;13.756;2022-11-15T07:53:51;8.00;67.00
19805;DHT22;10062;51.052;13.756;2022-11-15T07:56:42;8.20;63.80
19805;DHT22;10062;51.052;13.756;2022-11-15T07:59:33;8.30;43.50
19805;DHT22;10062;51.052;13.756;2022-11-15T08:02:24;8.30;25.30
19805;DHT22;10062;51.052;13.756;2022-11-15T08:05:16;8.40;27.10
19805;DHT22;10062;51.052;13.756;2022-11-15T08:08:07;8.60;8.00
19805;DHT22;10062;51.052;13.756;2022-11-15T08:10:58;8.80;1.00
19805;DHT22;10062;51.052;13.756;2022-11-15T08:13:50;8.90;1.00
19805;DHT22;10062;51.052;13.756;2022-11-15T08:16:40;9.00;1.00
19805;DHT22;10062;51.052;13.756;2022-11-15T08:19:30;9.10;1.00
19805;DHT22;10062;51.052;13.756;2022-11-15T08:22:21;9.30;1.00
19805;DHT22;10062;51.052;13.756;2022-11-15T08:25:11;9.40;1.00
19805;DHT22;10062;51.052;13.756;2022-11-15T08:28:04;9.70;1.00
19805;DHT22;10062;51.052;13.756;2022-11-15T08:30:56;10.00;1.00
19805;DHT22;10062;51.052;13.756;2022-11-15T08:33:47;10.30;1.00
19805;DHT22;10062;51.052;13.756;2022-11-15T08:36:37;10.60;1.00
19805;DHT22;10062;51.052;13.756;2022-11-15T08:39:28;10.60;1.00
19805;DHT22;10062;51.052;13.756;2022-11-15T08:42:18;10.50;1.00
19805;DHT22;10062;51.052;13.756;2022-11-15T08:45:09;10.60;1.00
19805;DHT22;10062;51.052;13.756;2022-11-15T08:48:02;10.90;1.00
19805;DHT22;10062;51.052;13.756;2022-11-15T08:50:53;11.00;1.00
19805;DHT22;10062;51.052;13.756;2022-11-15T08:53:44;11.20;1.00
19805;DHT22;10062;51.052;13.756;2022-11-15T08:56:34;11.00;1.00
19805;DHT22;10062;51.052;13.756;2022-11-15T08:59:25;11.40;1.00
19805;DHT22;10062;51.052;13.756;2022-11-15T09:02:15;12.70;99.90
19805;DHT22;10062;51.052;13.756;2022-11-15T09:05:08;12.40;1.00
19805;DHT22;10062;51.052;13.756;2022-11-15T09:07:58;12.30;1.00
19805;DHT22;10062;51.052;13.756;2022-11-15T09:10:49;12.70;99.90
19805;DHT22;10062;51.052;13.756;2022-11-15T09:13:39;12.80;1.00
19805;DHT22;10062;51.052;13.756;2022-11-15T09:16:30;13.30;1.00
19805;DHT22;10062;51.052;13.756;2022-11-15T09:19:21;13.40;1.00
19805;DHT22;10062;51.052;13.756;2022-11-15T09:22:13;13.80;1.00
19805;DHT22;10062;51.052;13.756;2022-11-15T09:25:04;12.80;1.00
19805;DHT22;10062;51.052;13.756;2022-11-15T09:27:55;12.30;1.00
19805;DHT22;10062;51.052;13.756;2022-11-15T09:30:45;12.30;1.00
19805;DHT22;10062;51.052;13.756;2022-11-15T09:33:36;12.40;1.00
19805;DHT22;10062;51.052;13.756;2022-11-15T09:36:26;12.70;99.90
19805;DHT22;10062;51.052;13.756;2022-11-15T09:39:18;13.30;99.90
19805;DHT22;10062;51.052;13.756;2022-11-15T09:42:22;13.30;99.90
19805;DHT22;10062;51.052;13.756;2022-11-15T09:45:20;13.50;99.90
19805;DHT22;10062;51.052;13.756;2022-11-15T09:48:32;13.90;99.90
19805;DHT22;10062;51.052;13.756;2022-11-15T09:51:35;14.60;99.90
19805;DHT22;10062;51.052;13.756;2022-11-15T09:54:25;14.60;1.00
19805;DHT22;10062;51.052;13.756;2022-11-15T09:57:04;14.00;1.00
19805;DHT22;10062;51.052;13.756;2022-11-15T09:59:51;13.40;1.00
19805;DHT22;10062;51.052;13.756;2022-11-15T10:02:41;13.50;1.00
19805;DHT22;10062;51.052;13.756;2022-11-15T10:05:19;13.70;99.90
19805;DHT22;10062;51.052;13.756;2022-11-15T10:07:58;14.30;1.00
19805;DHT22;10062;51.052;13.756;2022-11-15T10:10:38;14.10;1.00
19805;DHT22;10062;51.052;13.756;2022-11-15T10:13:13;13.90;1.00
19805;DHT22;10062;51.052;13.756;2022-11-15T10:15:48;13.90;99.90
19805;DHT22;10062;51.052;13.756;2022-11-15T10:18:25;14.00;1.00
19805;DHT22;10062;51.052;13.756;2022-11-15T10:21:09;14.10;1.00
19805;DHT22;10062;51.052;13.756;2022-11-15T10:23:44;14.50;1.00
19805;DHT22;10062;51.052;13.756;2022-11-15T10:26:17;14.20;1.00
19805;DHT22;10062;51.052;13.756;2022-11-15T10:28:49;13.90;1.00
19805;DHT22;10062;51.052;13.756;2022-11-15T10:31:23;13.70;1.00
19805;DHT22;10062;51.052;13.756;2022-11-15T10:34:05;13.70;94.60
19805;DHT22;10062;51.052;13.756;2022-11-15T10:36:44;14.00;99.90
19805;DHT22;10062;51.052;13.756;2022-11-15T10:39:16;14.30;99.90
19805;DHT22;10062;51.052;13.756;2022-11-15T10:41:49;14.50;1.00
19805;DHT22;10062;51.052;13.756;2022-11-15T10:44:26;14.60;1.00
19805;DHT22;10062;51.052;13.756;2022-11-15T10:47:21;14.50;1.00
19805;DHT22;10062;51.052;13.756;2022-11-15T10:49:59;14.30;95.60
19805;DHT22;10062;51.052;13.756;2022-11-15T10:52:32;14.40;99.90
19805;DHT22;10062;51.052;13.756;2022-11-15T10:55:21;14.70;1.00
19805;DHT22;10062;51.052;13.756;2022-11-15T10:58:01;14.50;1.00
19805;DHT22;10062;51.052;13.756;2022-11-15T11:00:35;14.20;97.40
19805;DHT22;10062;51.052;13.756;2022-11-15T11:03:27;14.40;1.00
19805;DHT22;10062;51.052;13.756;2022-11-15T11:06:05;13.80;1.00
19805;DHT22;10062;51.052;13.756;2022-11-15T11:08:37;13.90;1.00
19805;DHT22;10062;51.052;13.756;2022-11-15T11:11:09;14.30;1.00
19805;DHT22;10062;51.052;13.756;2022-11-15T11:13:42;14.10;1.00
19805;DHT22;10062;51.052;13.756;2022-11-15T11:16:26;14.00;1.00
19805;DHT22;10062;51.052;13.756;2022-11-15T11:19:08;14.30;1.00
19805;DHT22;10062;51.052;13.756;2022-11-15T11:21:51;14.80;99.90
19805;DHT22;10062;51.052;13.756;2022-11-15T11:24:32;15.20;1.00
19805;DHT22;10062;51.052;13.756;2022-11-15T11:27:21;15.50;99.90
19805;DHT22;10062;51.052;13.756;2022-11-15T11:30:06;15.50;1.00
19805;DHT22;10062;51.052;13.756;2022-11-15T11:33:09;15.30;23.90
19805;DHT22;10062;51.052;13.756;2022-11-15T11:35:50;15.40;1.00
19805;DHT22;10062;51.052;13.756;2022-11-15T11:38:36;15.60;1.00
19805;DHT22;10062;51.052;13.756;2022-11-15T11:41:18;15.30;1.00
19805;DHT22;10062;51.052;13.756;2022-11-15T11:44:00;15.10;1.00
19805;DHT22;10062;51.052;13.756;2022-11-15T11:46:47;15.10;1.00
19805;DHT22;10062;51.052;13.756;2022-11-15T11:49:25;15.00;1.00
19805;DHT22;10062;51.052;13.756;2022-11-15T11:52:03;15.50;1.00
19805;DHT22;10062;51.052;13.756;2022-11-15T11:54:45;15.70;1.00
19805;DHT22;10062;51.052;13.756;2022-11-15T11:57:25;15.60;1.00
19805;DHT22;10062;51.052;13.756;2022-11-15T12:00:12;15.30;1.00
19805;DHT22;10062;51.052;13.756;2022-11-15T12:02:52;15.10;1.00
19805;DHT22;10062;51.052;13.756;2022-11-15T12:05:30;14.90;1.00
19805;DHT22;10062;51.052;13.756;2022-11-15T12:08:15;14.90;1.00
19805;DHT22;10062;51.052;13.756;2022-11-15T12:10:54;14.90;1.00
19805;DHT22;10062;51.052;13.756;2022-11-15T12:13:30;15.00;1.00
19805;DHT22;10062;51.052;13.756;2022-11-15T12:16:12;15.10;1.00
19805;DHT22;10062;51.052;13.756;2022-11-15T12:18:49;14.90;1.00
19805;DHT22;10062;51.052;13.756;2022-11-15T12:21:27;15.00;1.00
19805;DHT22;10062;51.052;13.756;2022-11-15T12:24:05;15.10;1.00
19805;DHT22;10062;51.052;13.756;2022-11-15T12:26:41;15.10;1.00
19805;DHT22;10062;51.052;13.756;2022-11-15T12:29:18;15.40;1.00
19805;DHT22;10062;51.052;13.756;2022-11-15T12:31:54;15.30;1.00
19805;DHT22;10062;51.052;13.756;2022-11-15T12:34:39;15.10;1.00
19805;DHT22;10062;51.052;13.756;2022-11-15T12:37:44;14.70;1.00
19805;DHT22;10062;51.052;13.756;2022-11-15T12:40:32;14.50;99.90
19805;DHT22;10062;51.052;13.756;2022-11-15T12:46:19;14.40;99.90
19805;DHT22;10062;51.052;13.756;2022-11-15T12:48:54;14.10;1.00
19805;DHT22;10062;51.052;13.756;2022-11-15T12:55:00;13.40;1.00
19805;DHT22;10062;51.052;13.756;2022-11-15T12:57:36;13.30;33.00
19805;DHT22;10062;51.052;13.756;2022-11-15T13:00:43;13.50;99.90
19805;DHT22;10062;51.052;13.756;2022-11-15T13:06:07;14.00;99.90
19805;DHT22;10062;51.052;13.756;2022-11-15T13:08:42;13.70;1.00
19805;DHT22;10062;51.052;13.756;2022-11-15T13:11:46;13.50;1.00
19805;DHT22;10062;51.052;13.756;2022-11-15T13:14:52;13.40;1.00
19805;DHT22;10062;51.052;13.756;2022-11-15T13:17:32;13.50;1.00
19805;DHT22;10062;51.052;13.756;2022-11-15T13:20:23;13.50;1.00
19805;DHT22;10062;51.052;13.756;2022-11-15T13:23:02;13.60;1.00
19805;DHT22;10062;51.052;13.756;2022-11-15T13:26:06;13.90;99.90
19805;DHT22;10062;51.052;13.756;2022-11-15T13:28:45;14.20;1.00
19805;DHT22;10062;51.052;13.756;2022-11-15T13:31:25;14.10;1.00
19805;DHT22;10062;51.052;13.756;2022-11-15T13:34:00;14.40;1.00
19805;DHT22;10062;51.052;13.756;2022-11-15T13:36:33;14.40;99.90
19805;DHT22;10062;51.052;13.756;2022-11-15T13:39:12;14.40;99.90
19805;DHT22;10062;51.052;13.756;2022-11-15T13:41:48;14.20;99.90
19805;DHT22;10062;51.052;13.756;2022-11-15T13:44:23;14.00;1.00
19805;DHT22;10062;51.052;13.756;2022-11-15T13:47:05;13.60;1.00
19805;DHT22;10062;51.052;13.756;2022-11-15T13:49:37;13.30;99.90
19805;DHT22;10062;51.052;13.756;2022-11-15T13:52:12;13.30;1.00
19805;DHT22;10062;51.052;13.756;2022-11-15T13:54:47;13.30;99.90
19805;DHT22;10062;51.052;13.756;2022-11-15T13:57:22;13.00;1.00
19805;DHT22;10062;51.052;13.756;2022-11-15T13:59:57;12.40;99.90
19805;DHT22;10062;51.052;13.756;2022-11-15T14:02:33;12.30;1.00
19805;DHT22;10062;51.052;13.756;2022-11-15T14:05:15;12.20;99.90
19805;DHT22;10062;51.052;13.756;2022-11-15T14:07:53;11.90;1.00
19805;DHT22;10062;51.052;13.756;2022-11-15T14:10:28;12.30;1.00
19805;DHT22;10062;51.052;13.756;2022-11-15T14:13:02;11.40;1.00
19805;DHT22;10062;51.052;13.756;2022-11-15T14:15:37;11.30;1.00
19805;DHT22;10062;51.052;13.756;2022-11-15T14:18:41;11.00;99.90
19805;DHT22;10062;51.052;13.756;2022-11-15T14:21:13;10.90;1.00
19805;DHT22;10062;51.052;13.756;2022-11-15T14:23:45;10.60;1.00
19805;DHT22;10062;51.052;13.756;2022-11-15T14:26:27;10.60;1.00
19805;DHT22;10062;51.052;13.756;2022-11-15T14:29:21;10.40;1.00
19805;DHT22;10062;51.052;13.756;2022-11-15T14:32:12;10.10;99.90
19805;DHT22;10062;51.052;13.756;2022-11-15T14:34:44;10.00;1.00
19805;DHT22;10062;51.052;13.756;2022-11-15T14:37:20;10.00;1.00
19805;DHT22;10062;51.052;13.756;2022-11-15T14:39:53;9.90;1.00
19805;DHT22;10062;51.052;13.756;2022-11-15T14:42:25;9.90;1.00
19805;DHT22;10062;51.052;13.756;2022-11-15T14:44:58;9.90;1.00
19805;DHT22;10062;51.052;13.756;2022-11-15T14:47:31;9.90;1.00
19805;DHT22;10062;51.052;13.756;2022-11-15T14:50:03;9.80;1.00
19805;DHT22;10062;51.052;13.756;2022-11-15T14:52:35;9.60;1.00
19805;DHT22;10062;51.052;13.756;2022-11-15T14:55:15;9.50;1.00
19805;DHT22;10062;51.052;13.756;2022-11-15T14:57:48;9.30;1.00
19805;DHT22;10062;51.052;13.756;2022-11-15T15:00:21;9.10;1.00
19805;DHT22;10062;51.052;13.756;2022-11-15T15:02:55;9.00;1.00
19805;DHT22;10062;51.052;13.756;2022-11-15T15:05:31;9.00;1.00
19805;DHT22;10062;51.052;13.756;2022-11-15T15:08:04;8.80;1.00
19805;DHT22;10062;51.052;13.756;2022-11-15T15:10:38;8.70;1.00
19805;DHT22;10062;51.052;13.756;2022-11-15T15:13:16;8.70;1.00
19805;DHT22;10062;51.052;13.756;2022-11-15T15:15:49;8.80;1.00
19805;DHT22;10062;51.052;13.756;2022-11-15T15:18:23;8.80;1.00
19805;DHT22;10062;51.052;13.756;2022-11-15T15:20:56;8.50;1.00
19805;DHT22;10062;51.052;13.756;2022-11-15T15:23:30;8.40;1.00
19805;DHT22;10062;51.052;13.756;2022-11-15T15:26:02;8.50;1.00
19805;DHT22;10062;51.052;13.756;2022-11-15T15:28:34;8.50;1.00
19805;DHT22;10062;51.052;13.756;2022-11-15T15:31:06;8.70;1.00
19805;DHT22;10062;51.052;13.756;2022-11-15T15:33:39;8.70;1.00
19805;DHT22;10062;51.052;13.756;2022-11-15T15:36:11;8.70;1.00
19805;DHT22;10062;51.052;13.756;2022-11-15T15:38:44;8.60;1.00
19805;DHT22;10062;51.052;13.756;2022-11-15T15:41:17;7.50;1.00
19805;DHT22;10062;51.052;13.756;2022-11-15T15:43:49;8.50;1.00
19805;DHT22;10062;51.052;13.756;2022-11-15T15:46:21;8.30;1.00
19805;DHT22;10062;51.052;13.756;2022-11-15T15:48:54;8.10;1.00
19805;DHT22;10062;51.052;13.756;2022-11-15T15:51:25;8.00;1.00
19805;DHT22;10062;51.052;13.756;2022-11-15T15:53:57;7.80;1.00
19805;DHT22;10062;51.052;13.756;2022-11-15T15:56:29;7.90;1.00
19805;DHT22;10062;51.052;13.756;2022-11-15T15:59:01;8.10;1.00
19805;DHT22;10062;51.052;13.756;2022-11-15T16:01:32;8.30;1.00
19805;DHT22;10062;51.052;13.756;2022-11-15T16:04:06;8.10;1.00
19805;DHT22;10062;51.052;13.756;2022-11-15T16:06:39;8.00;1.00
19805;DHT22;10062;51.052;13.756;2022-11-15T16:09:15;7.90;1.00
19805;DHT22;10062;51.052;13.756;2022-11-15T16:11:47;9.50;1.00
19805;DHT22;10062;51.052;13.756;2022-11-15T16:14:19;7.80;1.00
19805;DHT22;10062;51.052;13.756;2022-11-15T16:16:51;7.90;1.00
19805;DHT22;10062;51.052;13.756;2022-11-15T16:19:24;8.00;1.00
19805;DHT22;10062;51.052;13.756;2022-11-15T16:21:56;7.80;1.00
19805;DHT22;10062;51.052;13.756;2022-11-15T16:24:28;7.70;1.00
19805;DHT22;10062;51.052;13.756;2022-11-15T16:27:00;7.80;1.00
19805;DHT22;10062;51.052;13.756;2022-11-15T16:29:32;7.80;1.00
19805;DHT22;10062;51.052;13.756;2022-11-15T16:32:03;7.70;1.00
19805;DHT22;10062;51.052;13.756;2022-11-15T16:34:37;7.60;1.00
19805;DHT22;10062;51.052;13.756;2022-11-15T16:37:19;7.50;1.00
19805;DHT22;10062;51.052;13.756;2022-11-15T16:39:52;7.60;1.00
19805;DHT22;10062;51.052;13.756;2022-11-15T16:42:24;7.60;1.00
19805;DHT22;10062;51.052;13.756;2022-11-15T16:44:56;7.70;1.00
19805;DHT22;10062;51.052;13.756;2022-11-15T16:47:28;8.20;1.00
19805;DHT22;10062;51.052;13.756;2022-11-15T16:50:01;7.80;1.00
19805;DHT22;10062;51.052;13.756;2022-11-15T16:52:32;7.70;1.00
19805;DHT22;10062;51.052;13.756;2022-11-15T16:55:05;7.70;1.00
19805;DHT22;10062;51.052;13.756;2022-11-15T16:57:37;7.60;1.00
19805;DHT22;10062;51.052;13.756;2022-11-15T17:00:11;7.60;1.00
19805;DHT22;10062;51.052;13.756;2022-11-15T17:02:47;7.70;1.00
19805;DHT22;10062;51.052;13.756;2022-11-15T17:05:56;7.60;1.00
19805;DHT22;10062;51.052;13.756;2022-11-15T17:08:31;7.80;1.00
19805;DHT22;10062;51.052;13.756;2022-11-15T17:11:04;7.20;1.00
19805;DHT22;10062;51.052;13.756;2022-11-15T17:13:36;7.10;1.00
19805;DHT22;10062;51.052;13.756;2022-11-15T17:16:10;7.10;1.00
19805;DHT22;10062;51.052;13.756;2022-11-15T17:18:43;7.00;1.00
19805;DHT22;10062;51.052;13.756;2022-11-15T17:21:19;7.00;8.80
19805;DHT22;10062;51.052;13.756;2022-11-15T17:23:51;7.00;17.10
19805;DHT22;10062;51.052;13.756;2022-11-15T17:26:22;6.90;23.00
19805;DHT22;10062;51.052;13.756;2022-11-15T17:28:55;6.80;23.60
19805;DHT22;10062;51.052;13.756;2022-11-15T17:31:27;6.80;40.80
19805;DHT22;10062;51.052;13.756;2022-11-15T17:34:01;6.90;39.50
19805;DHT22;10062;51.052;13.756;2022-11-15T17:36:34;6.60;39.90
19805;DHT22;10062;51.052;13.756;2022-11-15T17:39:06;6.60;61.90